Time;durP1;ratioP1;P1;durP2;ratioP2;P2;SDS_P1;SDS_P2;PMS_P1;PMS_P2;Temp;Humidity;BMP_temperature;BMP_pressure;BME280_temperature;BME280_humidity;BME280_pressure;Samples;Min_cycle;Max_cycle;Signal;HPM_P1;HPM_P2
2022/11/16 00:01:03;;;;;;;19.05;16.02;;;;;;;11.33;100.00;99045.09;5010432;28;20612;-76
2022/11/16 00:03:30;;;;;;;17.45;14.63;;;;;;;11.33;100.00;99055.88;5013097;28;20334;-74
2022/11/16 00:05:57;;;;;;;9.82;8.82;;;;;;;11.30;100.00;99050.69;5001442;28;20310;-75
2022/11/16 00:08:24;;;;;;;8.10;7.18;;;;;;;11.30;100.00;99055.22;5010583;28;20680;-73
2022/11/16 00:10:51;;;;;;;10.27;8.30;;;;;;;11.26;100.00;99050.03;5006945;28;20291;-74
2022/11/16 00:13:18;;;;;;;9.48;7.85;;;;;;;11.23;100.00;99055.63;5010928;28;20205;-73
2022/11/16 00:15:54;;;;;;;11.13;7.35;;;;;;;11.23;100.00;99062.84;5013253;28;20222;-74
2022/11/16 00:18:22;;;;;;;12.65;7.47;;;;;;;11.24;100.00;99059.22;5012092;28;20287;-74
2022/11/16 00:20:48;;;;;;;11.48;8.40;;;;;;;11.22;100.00;99063.84;5010090;28;20297;-73
2022/11/16 00:23:15;;;;;;;10.55;7.75;;;;;;;11.20;100.00;99049.59;5009023;28;20209;-72
2022/11/16 00:25:42;;;;;;;10.85;7.50;;;;;;;11.16;100.00;99054.34;5002274;28;20226;-72
2022/11/16 00:28:08;;;;;;;8.27;7.28;;;;;;;11.19;100.00;99047.88;5008918;28;20199;-75
2022/11/16 00:30:35;;;;;;;9.57;7.57;;;;;;;11.20;100.00;99057.69;5005859;28;20202;-74
2022/11/16 00:33:02;;;;;;;9.05;7.63;;;;;;;11.21;100.00;99062.09;5012183;28;20291;-73
2022/11/16 00:35:30;;;;;;;10.70;7.78;;;;;;;11.20;100.00;99061.25;5014198;28;20215;-73
2022/11/16 00:37:57;;;;;;;11.52;7.32;;;;;;;11.18;100.00;99047.00;5007131;28;20203;-72
2022/11/16 00:40:24;;;;;;;12.82;7.53;;;;;;;11.20;100.00;99049.59;5011097;28;20208;-72
2022/11/16 00:42:50;;;;;;;11.45;8.63;;;;;;;11.14;100.00;99050.03;5010959;28;20282;-75
2022/11/16 00:45:17;;;;;;;10.40;8.02;;;;;;;11.10;100.00;99060.13;5017401;28;20230;-74
2022/11/16 00:47:44;;;;;;;12.18;7.72;;;;;;;11.10;100.00;99052.06;5019759;28;20191;-75
2022/11/16 00:50:10;;;;;;;11.75;7.80;;;;;;;11.11;100.00;99053.81;5011368;28;20209;-74
2022/11/16 00:52:38;;;;;;;11.05;7.80;;;;;;;11.09;100.00;99054.88;5010783;28;20305;-73
2022/11/16 00:55:06;;;;;;;10.25;8.10;;;;;;;11.10;100.00;99053.91;5007634;28;20203;-73
2022/11/16 00:57:32;;;;;;;13.68;8.50;;;;;;;11.09;100.00;99047.66;5004450;28;20199;-74
2022/11/16 00:59:59;;;;;;;9.98;7.95;;;;;;;11.09;100.00;99044.09;5010502;28;20203;-75
2022/11/16 01:02:26;;;;;;;10.63;7.97;;;;;;;11.11;100.00;99043.03;5008230;28;20202;-74
2022/11/16 01:04:53;;;;;;;11.82;8.05;;;;;;;11.08;100.00;99045.94;5010275;28;20681;-75
2022/11/16 01:07:19;;;;;;;11.07;9.05;;;;;;;11.05;100.00;99038.91;5007450;28;20205;-73
2022/11/16 01:09:47;;;;;;;11.95;8.00;;;;;;;11.04;100.00;99044.41;5005782;28;20225;-73
2022/11/16 01:12:15;;;;;;;11.20;8.25;;;;;;;11.07;100.00;99042.34;5009466;28;20226;-74
2022/11/16 01:14:43;;;;;;;13.68;8.65;;;;;;;11.06;100.00;99043.34;5010216;28;20198;-73
2022/11/16 01:17:10;;;;;;;13.75;9.15;;;;;;;11.02;100.00;99036.44;5002581;28;20225;-73
2022/11/16 01:19:37;;;;;;;9.68;7.38;;;;;;;11.04;100.00;99036.34;5007327;28;20207;-74
2022/11/16 01:22:04;;;;;;;14.73;10.70;;;;;;;10.94;100.00;99035.22;5014201;28;20206;-75
2022/11/16 01:24:31;;;;;;;13.18;8.70;;;;;;;10.90;100.00;99034.59;5012426;28;20213;-71
2022/11/16 01:26:59;;;;;;;10.18;8.05;;;;;;;10.94;100.00;99030.69;5001211;28;20564;-74
2022/11/16 01:29:27;;;;;;;9.90;8.35;;;;;;;10.95;100.00;99029.75;5008593;28;20209;-72
2022/11/16 01:31:54;;;;;;;10.38;7.78;;;;;;;10.90;100.00;99021.13;5024878;28;20222;-75
2022/11/16 01:34:21;;;;;;;9.80;7.75;;;;;;;10.88;100.00;99025.75;5033543;28;20197;-73
2022/11/16 01:36:47;;;;;;;10.40;7.97;;;;;;;10.91;100.00;99016.59;5022643;28;20219;-77
2022/11/16 01:39:15;;;;;;;8.55;7.50;;;;;;;10.93;100.00;99017.34;5007656;28;20291;-75
2022/11/16 01:41:43;;;;;;;11.52;8.38;;;;;;;10.80;100.00;99004.72;5007527;28;20194;-73
2022/11/16 01:44:42;;;;;;;9.95;8.80;;;;;;;10.85;100.00;99009.78;5015694;28;20205;-77
2022/11/16 01:47:13;;;;;;;12.15;9.07;;;;;;;10.85;100.00;99010.69;5029928;28;20254;-74
2022/11/16 01:49:42;;;;;;;12.45;9.10;;;;;;;10.82;100.00;99001.94;5030789;28;20252;-72
2022/11/16 01:52:13;;;;;;;15.80;10.73;;;;;;;10.80;100.00;99003.88;5028864;28;20283;-74
2022/11/16 01:54:43;;;;;;;16.73;12.60;;;;;;;10.79;100.00;99003.00;5020613;28;20277;-72
2022/11/16 01:57:15;;;;;;;11.50;9.27;;;;;;;10.79;100.00;98999.47;5018186;28;20214;-75
2022/11/16 01:59:43;;;;;;;12.60;9.43;;;;;;;10.81;100.00;98997.53;5007597;28;20257;-73
2022/11/16 02:02:11;;;;;;;10.18;8.65;;;;;;;10.83;100.00;98999.13;5011645;28;20285;-74
2022/11/16 02:04:38;;;;;;;9.35;8.20;;;;;;;10.76;100.00;98995.16;5013198;28;20202;-73
2022/11/16 02:07:15;;;;;;;12.75;9.60;;;;;;;10.79;100.00;98989.53;5012462;28;20305;-74
2022/11/16 02:10:07;;;;;;;10.32;8.35;;;;;;;10.81;100.00;98986.75;5005422;28;20224;-71
2022/11/16 02:13:10;;;;;;;9.88;7.93;;;;;;;10.79;100.00;98986.00;5001936;28;20227;-74
2022/11/16 02:15:44;;;;;;;10.60;8.98;;;;;;;10.80;100.00;98979.63;5028247;28;20222;-71
2022/11/16 02:18:21;;;;;;;12.77;9.07;;;;;;;10.79;100.00;98977.91;5023610;28;20209;-71
2022/11/16 02:23:48;;;;;;;11.10;9.25;;;;;;;10.80;100.00;98982.31;5136111;22;20232;-74
2022/11/16 02:26:31;;;;;;;11.20;8.48;;;;;;;10.83;100.00;98979.41;5044796;28;20218;-72
2022/11/16 02:29:19;;;;;;;10.70;9.45;;;;;;;10.81;100.00;98973.28;5054485;28;20202;-75
2022/11/16 02:31:51;;;;;;;9.90;8.35;;;;;;;10.85;100.00;98970.28;5058816;28;20201;-74
2022/11/16 02:34:21;;;;;;;12.43;8.52;;;;;;;10.80;100.00;98971.53;5052750;28;20223;-74
2022/11/16 02:36:51;;;;;;;10.02;9.02;;;;;;;10.81;100.00;98970.59;5055790;28;20706;-74
2022/11/16 02:39:21;;;;;;;12.70;9.55;;;;;;;10.81;100.00;98967.91;5043781;28;20202;-74
2022/11/16 02:41:50;;;;;;;10.70;9.32;;;;;;;10.80;100.00;98966.16;5053573;28;20219;-73
2022/11/16 02:44:23;;;;;;;12.13;8.77;;;;;;;10.76;100.00;98964.66;5059564;28;20379;-74
2022/11/16 02:46:55;;;;;;;11.07;9.15;;;;;;;10.71;100.00;98962.28;5058816;28;20216;-74
2022/11/16 02:49:23;;;;;;;10.32;9.20;;;;;;;10.76;100.00;98964.66;5056518;28;20204;-74
2022/11/16 02:51:52;;;;;;;11.15;9.50;;;;;;;10.76;100.00;98959.25;5059208;28;20204;-75
2022/11/16 02:54:21;;;;;;;10.95;9.23;;;;;;;10.71;100.00;98959.56;5047618;28;20548;-74
2022/11/16 02:56:54;;;;;;;10.93;9.00;;;;;;;10.72;100.00;98953.25;5051325;28;20228;-75
2022/11/16 02:59:25;;;;;;;10.73;8.98;;;;;;;10.73;100.00;98943.31;5061213;28;20280;-73
2022/11/16 03:01:58;;;;;;;13.23;10.10;;;;;;;10.77;100.00;98955.63;5059227;28;20216;-74
2022/11/16 03:04:30;;;;;;;13.73;9.35;;;;;;;10.72;100.00;98958.63;5056523;28;20217;-73
2022/11/16 03:06:58;;;;;;;14.63;9.48;;;;;;;10.70;100.00;98948.94;5075711;28;20281;-73
2022/11/16 03:09:30;;;;;;;11.40;10.25;;;;;;;10.73;100.00;98954.94;5064349;28;20197;-75
2022/11/16 03:11:59;;;;;;;13.27;10.13;;;;;;;10.75;100.00;98957.53;5058459;28;20200;-74
2022/11/16 03:14:33;;;;;;;13.68;9.95;;;;;;;10.77;100.00;98950.22;5053596;28;20205;-73
2022/11/16 03:17:01;;;;;;;12.50;9.95;;;;;;;10.68;100.00;98956.25;5068114;28;20222;-73
2022/11/16 03:19:36;;;;;;;12.68;9.30;;;;;;;10.70;100.00;98955.16;5055039;28;20305;-74
2022/11/16 03:22:10;;;;;;;12.13;9.60;;;;;;;10.69;100.00;98950.75;5061015;28;20200;-73
2022/11/16 03:24:37;;;;;;;15.55;10.30;;;;;;;10.67;100.00;98946.44;5054417;28;20286;-76
2022/11/16 03:27:08;;;;;;;10.32;9.15;;;;;;;10.72;100.00;98950.56;5066629;28;20217;-74
2022/11/16 03:29:42;;;;;;;11.35;9.55;;;;;;;10.67;100.00;98949.97;5046701;28;20228;-75
2022/11/16 03:32:17;;;;;;;13.65;11.02;;;;;;;10.68;100.00;98942.78;5048061;28;20732;-74
2022/11/16 03:34:52;;;;;;;11.73;10.07;;;;;;;10.67;100.00;98943.75;5050534;28;20200;-74
2022/11/16 03:37:20;;;;;;;14.18;10.00;;;;;;;10.66;100.00;98942.88;5056642;28;20211;-74
2022/11/16 03:39:47;;;;;;;12.27;10.65;;;;;;;10.72;100.00;98936.19;5058455;28;20306;-73
2022/11/16 03:42:14;;;;;;;14.27;9.82;;;;;;;10.78;100.00;98928.56;5049951;28;20238;-73
2022/11/16 03:44:45;;;;;;;12.88;9.82;;;;;;;10.73;100.00;98927.16;5062485;28;20242;-74
2022/11/16 03:47:12;;;;;;;13.40;10.70;;;;;;;10.74;100.00;98921.69;5059917;22;20601;-74
2022/11/16 03:49:43;;;;;;;11.65;9.50;;;;;;;10.76;100.00;98926.94;5041229;28;20214;-73
2022/11/16 03:52:09;;;;;;;13.73;11.02;;;;;;;10.76;100.00;98926.94;5041257;28;20218;-75
2022/11/16 03:54:36;;;;;;;12.30;10.35;;;;;;;10.73;100.00;98929.88;5046664;28;20236;-71
2022/11/16 03:57:03;;;;;;;11.55;10.45;;;;;;;10.74;100.00;98926.19;5027015;28;20368;-75
2022/11/16 03:59:29;;;;;;;14.35;11.50;;;;;;;10.81;100.00;98924.81;5031534;28;20212;-74
2022/11/16 04:01:57;;;;;;;13.10;11.30;;;;;;;10.79;100.00;98932.13;5025463;28;20201;-76
2022/11/16 04:28:12;;;;;;;16.27;14.48;;;;;;;10.90;100.00;98940.31;5021424;28;20233;-75
2022/11/16 04:29:22;;;;;;;21.80;15.18;;;;;;;10.90;100.00;98939.44;5024401;28;20201;-72
2022/11/16 04:40:04;;;;;;;24.38;16.45;;;;;;;10.94;100.00;98944.50;5027427;28;20233;-73
2022/11/16 04:42:30;;;;;;;21.63;16.92;;;;;;;10.94;100.00;98936.44;5024361;28;20198;-74
2022/11/16 04:47:41;;;;;;;22.23;16.75;;;;;;;10.90;100.00;98940.31;5027852;28;20261;-73
2022/11/16 04:50:10;;;;;;;22.17;17.60;;;;;;;10.88;100.00;98952.16;5023673;28;20201;-70
2022/11/16 04:52:36;;;;;;;24.20;18.63;;;;;;;10.89;100.00;98954.75;5025578;28;20228;-75
2022/11/16 04:55:04;;;;;;;26.10;19.98;;;;;;;10.87;100.00;98948.59;5034726;28;20202;-75
2022/11/16 04:57:30;;;;;;;22.20;17.60;;;;;;;10.96;100.00;98947.09;5020751;28;20700;-74
2022/11/16 04:59:57;;;;;;;26.13;18.20;;;;;;;10.91;100.00;98947.44;5019516;28;20198;-74
2022/11/16 05:02:23;;;;;;;27.33;19.35;;;;;;;10.94;100.00;98951.72;5024597;28;20275;-74
2022/11/16 05:04:50;;;;;;;23.90;17.98;;;;;;;10.91;100.00;98963.59;5029643;28;20226;-72
2022/11/16 05:07:18;;;;;;;25.23;19.08;;;;;;;10.84;100.00;98964.97;5033321;28;20218;-75
2022/11/16 05:09:46;;;;;;;28.23;21.05;;;;;;;10.90;100.00;98971.75;5023237;28;20206;-75
2022/11/16 05:12:14;;;;;;;27.50;18.92;;;;;;;10.88;100.00;98954.84;5026885;28;20676;-75
2022/11/16 05:14:41;;;;;;;28.48;20.48;;;;;;;10.91;100.00;98962.72;5036246;28;20205;-75
2022/11/16 05:17:07;;;;;;;26.70;18.92;;;;;;;10.92;100.00;98957.25;5032533;28;20677;-74
2022/11/16 05:22:19;;;;;;;24.90;18.05;;;;;;;10.94;100.00;98967.91;5013538;28;20245;-75
2022/11/16 05:24:46;;;;;;;25.75;19.63;;;;;;;10.96;100.00;98963.25;5030213;28;20661;-73
2022/11/16 05:27:14;;;;;;;25.65;19.33;;;;;;;10.91;100.00;98960.91;5015627;28;20222;-74
2022/11/16 05:29:42;;;;;;;26.33;19.98;;;;;;;10.88;100.00;98960.22;5016533;28;20212;-74
2022/11/16 05:32:11;;;;;;;26.83;19.38;;;;;;;10.83;100.00;98956.06;5020461;28;20194;-73
2022/11/16 05:34:38;;;;;;;26.35;19.83;;;;;;;10.80;100.00;98961.63;5019299;28;20202;-73
2022/11/16 05:37:05;;;;;;;29.50;20.95;;;;;;;10.85;100.00;98962.19;5019379;28;20226;-74
2022/11/16 05:39:33;;;;;;;27.30;18.95;;;;;;;10.81;100.00;98951.75;5024364;28;20198;-72
2022/11/16 05:42:00;;;;;;;25.80;20.17;;;;;;;10.79;100.00;98962.63;5023525;28;20771;-73
2022/11/16 05:44:26;;;;;;;30.50;20.77;;;;;;;10.83;100.00;98971.31;5033565;28;20194;-74
2022/11/16 05:46:54;;;;;;;28.48;19.42;;;;;;;10.77;100.00;98966.38;5030299;28;20743;-74
2022/11/16 05:49:22;;;;;;;26.55;18.85;;;;;;;10.98;100.00;98964.88;5024779;28;20208;-77
2022/11/16 05:51:49;;;;;;;28.42;20.77;;;;;;;10.93;100.00;98967.03;5014218;28;20290;-73
2022/11/16 05:54:19;;;;;;;30.52;21.50;;;;;;;10.87;100.00;98962.06;5008596;28;20246;-72
2022/11/16 05:56:47;;;;;;;26.45;19.48;;;;;;;10.77;100.00;98972.63;5014504;28;20217;-72
2022/11/16 05:59:15;;;;;;;24.75;18.95;;;;;;;10.73;100.00;98975.63;5016077;28;20207;-74
2022/11/16 06:01:42;;;;;;;27.65;20.08;;;;;;;10.73;100.00;98981.03;5022532;28;20206;-74
2022/11/16 06:04:09;;;;;;;27.73;18.80;;;;;;;10.76;100.00;98970.03;5019946;28;20206;-74
2022/11/16 06:06:36;;;;;;;27.80;20.50;;;;;;;10.69;100.00;98974.97;4996726;28;20238;-74
2022/11/16 06:09:03;;;;;;;30.15;21.77;;;;;;;10.72;100.00;98976.59;5010313;28;20205;-76
2022/11/16 06:11:31;;;;;;;26.75;19.63;;;;;;;10.72;100.00;98976.59;5025598;28;20701;-76
2022/11/16 06:13:59;;;;;;;25.17;18.98;;;;;;;10.68;100.00;98984.03;5025741;28;20252;-76
2022/11/16 06:16:26;;;;;;;27.42;18.92;;;;;;;10.68;100.00;98983.16;5031461;28;20627;-76
2022/11/16 06:18:52;;;;;;;25.60;18.50;;;;;;;10.77;100.00;98977.16;5020581;28;20199;-76
2022/11/16 06:21:19;;;;;;;24.30;19.40;;;;;;;10.71;100.00;98981.13;5019749;28;20198;-76
2022/11/16 06:23:47;;;;;;;25.90;20.33;;;;;;;10.70;100.00;98986.63;5033784;28;20281;-75
2022/11/16 06:26:13;;;;;;;26.23;19.48;;;;;;;10.74;100.00;98996.19;5033631;28;20222;-76
2022/11/16 06:28:40;;;;;;;28.70;21.27;;;;;;;10.70;100.00;98989.31;5022846;28;20766;-75
2022/11/16 06:31:08;;;;;;;30.67;21.10;;;;;;;10.70;100.00;98997.41;5015768;28;20202;-76
2022/11/16 06:33:35;;;;;;;32.17;22.30;;;;;;;10.74;100.00;98993.50;5022852;28;20766;-76
2022/11/16 06:36:01;;;;;;;31.73;20.63;;;;;;;10.70;100.00;98995.56;5035828;28;20225;-75
2022/11/16 06:38:28;;;;;;;30.35;21.27;;;;;;;10.71;100.00;98988.34;5033050;28;20205;-77
2022/11/16 06:40:56;;;;;;;28.20;19.70;;;;;;;10.72;100.00;99000.81;5033720;28;20590;-75
2022/11/16 06:43:24;;;;;;;27.65;20.42;;;;;;;10.68;100.00;98983.16;5034685;28;20220;-74
2022/11/16 06:45:51;;;;;;;31.13;20.70;;;;;;;10.67;100.00;98990.38;5034336;28;20229;-73
2022/11/16 06:48:19;;;;;;;29.33;20.25;;;;;;;10.72;100.00;99000.81;5033999;28;20625;-73
2022/11/16 06:50:47;;;;;;;26.25;20.02;;;;;;;10.70;100.00;99002.78;5034055;28;20209;-75
2022/11/16 06:53:13;;;;;;;28.13;19.33;;;;;;;10.68;100.00;98997.50;5046320;28;20222;-75
2022/11/16 06:55:41;;;;;;;27.02;20.00;;;;;;;10.72;100.00;99000.81;5034113;28;20218;-75
2022/11/16 06:58:07;;;;;;;27.67;18.17;;;;;;;10.64;100.00;98999.50;5033832;28;20206;-76
2022/11/16 07:00:34;;;;;;;29.45;20.55;;;;;;;10.66;100.00;99012.03;5039306;28;20229;-74
2022/11/16 07:03:02;;;;;;;25.00;18.92;;;;;;;10.66;100.00;99003.94;5039194;28;20198;-77
2022/11/16 07:05:30;;;;;;;27.98;21.02;;;;;;;10.63;100.00;99010.41;5035634;28;20212;-74
2022/11/16 07:07:57;;;;;;;28.38;20.17;;;;;;;10.67;100.00;99003.81;5033199;28;20229;-75
2022/11/16 07:10:24;;;;;;;24.38;17.70;;;;;;;10.64;100.00;99012.13;5043326;28;20293;-75
2022/11/16 07:12:50;;;;;;;26.88;18.40;;;;;;;10.65;100.00;99021.94;5033341;28;20209;-75
2022/11/16 07:15:18;;;;;;;25.00;18.60;;;;;;;10.66;100.00;99028.19;5033099;28;20209;-76
2022/11/16 07:17:44;;;;;;;27.02;19.23;;;;;;;10.65;100.00;99032.72;5033543;28;20221;-74
2022/11/16 07:20:11;;;;;;;25.42;18.40;;;;;;;10.61;100.00;99021.28;5034033;28;20214;-74
2022/11/16 07:22:39;;;;;;;23.38;17.45;;;;;;;10.64;100.00;99034.50;5034410;28;20213;-74
2022/11/16 07:25:07;;;;;;;24.08;18.20;;;;;;;10.75;100.00;99031.09;5035027;28;20269;-76
2022/11/16 07:27:34;;;;;;;23.63;17.15;;;;;;;10.75;100.00;99041.88;5034601;28;20232;-75
2022/11/16 07:30:01;;;;;;;26.10;18.65;;;;;;;10.92;100.00;99034.47;5033692;28;20206;-75
2022/11/16 07:32:28;;;;;;;27.15;17.08;;;;;;;11.07;100.00;99045.06;5034374;28;20237;-75
2022/11/16 07:34:55;;;;;;;26.83;18.55;;;;;;;11.34;100.00;99052.19;5034341;28;20217;-74
2022/11/16 07:37:21;;;;;;;22.38;18.23;;;;;;;11.53;100.00;99043.66;5033403;28;20234;-77
2022/11/16 07:39:49;;;;;;;21.08;15.15;;;;;;;11.75;100.00;99048.41;5033052;28;20202;-75
2022/11/16 07:42:16;;;;;;;20.35;15.68;;;;;;;11.71;100.00;99051.41;5033095;28;20206;-76
2022/11/16 07:44:42;;;;;;;19.17;15.32;;;;;;;11.61;100.00;99054.78;5035057;28;20206;-76
2022/11/16 07:47:09;;;;;;;18.65;13.38;;;;;;;11.57;100.00;99058.66;5037422;28;20229;-73
2022/11/16 07:49:35;;;;;;;29.02;14.57;;;;;;;11.31;100.00;99060.50;5035999;28;20672;-74
2022/11/16 07:52:02;;;;;;;18.52;14.27;;;;;;;11.42;100.00;99066.00;5036599;28;20526;-75
2022/11/16 07:54:29;;;;;;;18.50;14.95;;;;;;;11.74;100.00;99048.53;5036119;28;20265;-75
2022/11/16 07:56:56;;;;;;;18.50;13.57;;;;;;;12.16;100.00;99063.44;5035606;28;20305;-74
2022/11/16 07:59:23;;;;;;;16.92;12.63;;;;;;;12.31;100.00;99065.03;5035910;28;20233;-74
2022/11/16 08:01:49;;;;;;;16.13;12.15;;;;;;;12.21;100.00;99073.91;5035863;28;20699;-74
2022/11/16 08:04:16;;;;;;;13.82;12.27;;;;;;;12.55;100.00;99079.50;5023410;28;20203;-75
2022/11/16 08:06:45;;;;;;;12.90;9.55;;;;;;;12.60;100.00;99090.84;5015902;28;20250;-75
2022/11/16 08:09:12;;;;;;;12.50;9.93;;;;;;;12.39;100.00;99093.28;5015272;28;20285;-75
2022/11/16 08:11:39;;;;;;;13.77;9.05;;;;;;;12.83;100.00;99094.53;5016637;28;20203;-75
2022/11/16 08:14:06;;;;;;;11.30;9.32;;;;;;;13.03;100.00;99091.19;5017405;28;20294;-74
2022/11/16 08:16:33;;;;;;;12.52;9.20;;;;;;;13.20;100.00;99097.97;5018454;28;20229;-74
2022/11/16 08:19:01;;;;;;;11.38;8.82;;;;;;;12.70;100.00;99094.56;5019248;28;20641;-75
2022/11/16 08:21:27;;;;;;;11.63;8.90;;;;;;;12.81;100.00;99099.19;5021444;28;20209;-76
2022/11/16 08:23:54;;;;;;;11.43;8.60;;;;;;;12.91;100.00;99092.97;5021095;28;20253;-74
2022/11/16 08:26:21;;;;;;;10.80;8.98;;;;;;;12.51;100.00;99106.75;5022219;28;20228;-75
2022/11/16 08:28:52;;;;;;;12.13;9.23;;;;;;;12.19;100.00;99111.81;5020003;28;20210;-75
2022/11/16 08:31:22;;;;;;;14.95;8.90;;;;;;;12.60;100.00;99104.38;5028768;28;20282;-74
2022/11/16 08:33:50;;;;;;;13.25;8.38;;;;;;;12.41;100.00;99116.50;5029718;28;20211;-74
2022/11/16 08:36:17;;;;;;;12.38;8.23;;;;;;;12.37;100.00;99123.13;5027072;28;20245;-73
2022/11/16 08:38:43;;;;;;;12.23;8.18;;;;;;;12.22;100.00;99127.78;5027577;28;20301;-74
2022/11/16 08:41:10;;;;;;;10.77;7.35;;;;;;;12.48;100.00;99125.91;5028451;28;20331;-74
2022/11/16 08:43:38;;;;;;;9.10;6.53;;;;;;;12.36;100.00;99132.19;5023736;28;20206;-72
2022/11/16 08:46:05;;;;;;;8.27;6.50;;;;;;;12.35;100.00;99130.47;5016172;28;20256;-75
2022/11/16 08:48:33;;;;;;;16.10;6.78;;;;;;;12.25;100.00;99135.66;5017507;28;20294;-75
2022/11/16 08:51:03;;;;;;;14.30;8.10;;;;;;;12.09;100.00;99141.28;5018959;28;20203;-74
2022/11/16 08:53:29;;;;;;;9.90;6.00;;;;;;;12.38;100.00;99140.19;5019855;28;20211;-75
2022/11/16 08:55:56;;;;;;;10.48;6.60;;;;;;;12.40;100.00;99143.63;5016721;28;20226;-76
2022/11/16 08:58:22;;;;;;;9.85;6.82;;;;;;;12.23;100.00;99155.63;5015934;28;20202;-75
2022/11/16 09:00:50;;;;;;;13.52;6.75;;;;;;;12.10;100.00;99163.75;5016525;28;20605;-74
2022/11/16 09:03:16;;;;;;;8.90;6.85;;;;;;;12.15;100.00;99158.88;5017668;28;20206;-74
2022/11/16 09:05:45;;;;;;;7.45;5.95;;;;;;;12.35;100.00;99160.16;5015875;28;20218;-75
2022/11/16 09:08:12;;;;;;;7.30;5.18;;;;;;;12.50;100.00;99158.16;5017348;28;20211;-74
2022/11/16 09:10:38;;;;;;;7.30;5.40;;;;;;;12.87;100.00;99159.03;5017497;28;20225;-74
2022/11/16 09:13:05;;;;;;;6.25;4.35;;;;;;;13.45;100.00;99147.50;5016183;28;20202;-75
2022/11/16 09:15:32;;;;;;;6.55;3.60;;;;;;;13.89;100.00;99137.75;5016218;28;20313;-76
2022/11/16 09:17:58;;;;;;;5.97;3.25;;;;;;;14.21;100.00;99121.63;5016593;28;20289;-73
2022/11/16 09:20:25;;;;;;;4.93;3.03;;;;;;;13.95;100.00;99124.59;5017981;28;20698;-76
2022/11/16 09:22:53;;;;;;;6.07;2.80;;;;;;;13.47;100.00;99126.59;5015584;28;20213;-74
2022/11/16 09:25:19;;;;;;;6.53;3.00;;;;;;;13.49;100.00;99128.19;5016420;28;20286;-74
2022/11/16 09:27:46;;;;;;;3.28;2.78;;;;;;;13.17;100.00;99129.81;5015640;28;20297;-73
2022/11/16 09:30:13;;;;;;;6.20;1.88;;;;;;;12.94;100.00;99129.72;5016035;28;20634;-74
2022/11/16 09:32:40;;;;;;;6.45;2.53;;;;;;;13.01;100.00;99143.63;5016571;28;20207;-75
2022/11/16 09:35:07;;;;;;;4.55;2.30;;;;;;;13.21;100.00;99142.13;5017310;28;20229;-75
2022/11/16 09:37:33;;;;;;;4.43;2.00;;;;;;;13.64;100.00;99138.84;5019860;28;20226;-73
2022/11/16 09:40:01;;;;;;;4.07;1.95;;;;;;;14.10;100.00;99140.59;5017704;28;20203;-74
2022/11/16 09:42:39;;;;;;;5.35;2.10;;;;;;;13.94;100.00;99136.41;5016223;28;20202;-74
2022/11/16 09:45:13;;;;;;;9.25;2.30;;;;;;;14.08;100.00;99145.25;5016538;28;20183;-72
2022/11/16 09:47:49;;;;;;;8.00;1.90;;;;;;;13.85;100.00;99152.50;5039120;23;20240;-75
2022/11/16 09:50:24;;;;;;;4.45;1.52;;;;;;;13.98;100.00;99143.28;5019688;28;20273;-75
2022/11/16 09:52:55;;;;;;;9.55;3.13;;;;;;;14.04;100.00;99149.19;5019886;28;20281;-75
2022/11/16 09:55:27;;;;;;;6.75;2.00;;;;;;;14.42;100.00;99158.81;5020130;28;20245;-75
2022/11/16 09:57:56;;;;;;;4.93;1.70;;;;;;;14.93;100.00;99142.00;5001453;28;20265;-75
2022/11/16 10:00:23;;;;;;;4.68;1.75;;;;;;;15.14;100.00;99142.03;5000520;28;20262;-75
2022/11/16 10:03:00;;;;;;;7.18;1.90;;;;;;;15.48;100.00;99150.88;5001087;28;20212;-75
2022/11/16 10:05:32;;;;;;;5.13;1.90;;;;;;;14.72;100.00;99141.91;4995962;28;20270;-74
2022/11/16 10:08:06;;;;;;;6.15;1.40;;;;;;;14.34;100.00;99152.16;4993780;28;20215;-75
2022/11/16 10:10:38;;;;;;;5.90;1.88;;;;;;;14.14;100.00;99155.63;4995264;28;20213;-74
2022/11/16 10:13:16;;;;;;;6.82;2.55;;;;;;;13.83;100.00;99160.75;4995337;28;20208;-75
2022/11/16 10:15:54;;;;;;;3.75;1.70;;;;;;;14.22;100.00;99146.88;4998545;28;20298;-74
2022/11/16 10:18:40;;;;;;;7.30;1.70;;;;;;;14.22;100.00;99142.31;4996768;28;20222;-75
2022/11/16 10:21:22;;;;;;;4.20;2.28;;;;;;;14.38;100.00;99144.63;4998638;28;20253;-75
2022/11/16 10:24:23;;;;;;;3.47;1.73;;;;;;;14.20;100.00;99149.72;4996520;28;20206;-75
2022/11/16 10:27:09;;;;;;;9.00;2.00;;;;;;;14.00;100.00;99145.88;4998009;28;20709;-75
2022/11/16 10:29:49;;;;;;;7.18;1.90;;;;;;;13.88;100.00;99153.09;4998830;28;20274;-74
2022/11/16 10:32:24;;;;;;;5.97;2.47;;;;;;;13.96;100.00;99158.78;4980052;28;20197;-75
2022/11/16 10:34:53;;;;;;;6.85;2.40;;;;;;;13.45;100.00;99153.75;4998749;28;20261;-73
2022/11/16 10:37:20;;;;;;;5.88;1.83;;;;;;;13.70;100.00;99144.63;4996909;28;20283;-74
2022/11/16 10:39:49;;;;;;;6.10;1.83;;;;;;;13.81;100.00;99140.19;4994858;28;20206;-75
2022/11/16 10:42:22;;;;;;;6.95;2.00;;;;;;;13.80;100.00;99141.19;4995131;28;20238;-75
2022/11/16 10:44:57;;;;;;;6.10;2.00;;;;;;;13.83;100.00;99144.50;4994723;28;20653;-75
2022/11/16 10:47:31;;;;;;;7.60;2.05;;;;;;;13.50;100.00;99142.59;4977290;28;20241;-74
2022/11/16 10:50:00;;;;;;;4.65;2.53;;;;;;;13.30;100.00;99133.31;4999312;28;20187;-75
2022/11/16 10:52:27;;;;;;;3.33;1.70;;;;;;;13.00;100.00;99131.06;4999660;28;20286;-75
2022/11/16 10:54:54;;;;;;;6.85;2.05;;;;;;;13.01;100.00;99133.66;4996710;28;20227;-75
2022/11/16 10:57:25;;;;;;;8.88;2.45;;;;;;;12.71;100.00;99128.72;4995657;28;20226;-75
2022/11/16 10:59:54;;;;;;;4.90;2.47;;;;;;;12.82;100.00;99133.31;4995047;28;20187;-75
2022/11/16 11:02:30;;;;;;;5.82;2.03;;;;;;;12.71;100.00;99129.59;4996251;28;20207;-75
2022/11/16 11:05:02;;;;;;;5.25;1.90;;;;;;;12.62;100.00;99124.00;4995057;28;20214;-75
2022/11/16 11:07:31;;;;;;;3.72;2.00;;;;;;;12.78;100.00;99121.03;4995029;28;20234;-76
2022/11/16 11:09:58;;;;;;;6.28;2.50;;;;;;;12.70;100.00;99117.03;4995305;28;20231;-74
2022/11/16 11:12:39;;;;;;;4.85;2.25;;;;;;;12.77;100.00;99109.34;4995357;28;20199;-74
2022/11/16 11:15:25;;;;;;;4.90;2.50;;;;;;;12.66;100.00;99117.38;4994856;28;20234;-76
2022/11/16 11:18:10;;;;;;;8.50;2.22;;;;;;;12.89;100.00;99108.44;4991736;28;20282;-74
2022/11/16 11:20:40;;;;;;;4.93;2.30;;;;;;;12.99;100.00;99114.00;5000058;28;20552;-74
2022/11/16 11:23:14;;;;;;;8.43;2.58;;;;;;;13.26;100.00;99111.03;5000342;28;20204;-74
2022/11/16 11:25:49;;;;;;;5.32;1.90;;;;;;;13.43;100.00;99114.28;4999866;28;20306;-75
2022/11/16 11:28:22;;;;;;;8.00;2.35;;;;;;;13.68;100.00;99105.13;4998022;28;20278;-75
2022/11/16 11:30:55;;;;;;;4.40;2.10;;;;;;;13.87;100.00;99102.69;4999851;28;20267;-74
2022/11/16 11:33:23;;;;;;;4.90;1.98;;;;;;;13.87;100.00;99108.09;4998981;28;20298;-74
2022/11/16 11:36:04;;;;;;;10.40;2.78;;;;;;;13.65;100.00;99102.66;4998669;28;20223;-74
2022/11/16 11:38:32;;;;;;;4.68;2.60;;;;;;;13.51;100.00;99104.59;4998084;28;20203;-74
2022/11/16 11:41:00;;;;;;;7.53;2.25;;;;;;;13.40;100.00;99103.72;4998661;28;20207;-75
2022/11/16 11:43:29;;;;;;;6.00;2.65;;;;;;;13.33;100.00;99104.19;4997981;28;20211;-74
2022/11/16 11:46:05;;;;;;;7.22;2.20;;;;;;;13.00;100.00;99098.63;4997723;28;20203;-76
2022/11/16 11:48:41;;;;;;;9.32;2.78;;;;;;;13.06;100.00;99088.22;4997154;28;20207;-75
2022/11/16 11:51:13;;;;;;;5.03;2.03;;;;;;;12.81;100.00;99100.03;4998357;28;20195;-74
2022/11/16 11:53:50;;;;;;;5.82;1.92;;;;;;;12.72;100.00;99100.72;4998156;28;20238;-73
2022/11/16 11:56:18;;;;;;;7.00;2.15;;;;;;;12.66;100.00;99099.38;4997767;28;20238;-75
2022/11/16 11:58:47;;;;;;;6.75;2.83;;;;;;;12.66;100.00;99093.06;4997553;28;20580;-74
2022/11/16 12:01:32;;;;;;;4.75;2.38;;;;;;;12.61;100.00;99093.41;4998350;28;20294;-74
2022/11/16 12:04:46;;;;;;;4.75;2.22;;;;;;;12.52;100.00;99089.56;4998195;28;20216;-74
2022/11/16 12:07:27;;;;;;;6.75;2.20;;;;;;;12.57;100.00;99094.63;4997710;28;20246;-76